Portada
METAR-TAF:

METAR-TAF

Aeroports :

North Central State Airport

Pawtucket, Rhode Island, Estats Units d'Amèrica

latitud: 41-55N, longitud: 071-30W, altitud: 134 m

Observació

L'informe es va fer fa 28 minuts, a les 17:03 UTC
Vent 9 kt del Nord
Temperatura 1°C
Humitat 59%
Pressió 1027 hPa
Visibilitat: 16.1 km
Cel cobert a una alçada de 3000 ft

METAR: KSFZ 171703Z AUTO 01009KT 10SM OVC030 01/M06 A3034 RMK AO2 FZRANO

Hora: 12:31 (17:31 UTC)


TAF: manca

Observacions i pronòstics meteorològics de més de 4000 aeroports (METAR i TAF).

Les estacions disponibles són els punts grocs i vermells al mapa.

Posi el ratolí al punt desitjat per veure el nom de l'estació.

Feu clic per veure les observacions i els pronòstics meteorològics.

Per canviar el mapa: feu clic els botons verds amb una creu de color negre per apropar; al botó verd amb un guió per allunyar la imatge; o en les fletxes verdes per a mapes adjacents.


METAR-TAF: